Avella, Pennsylvania
Current Conditions -  °F | °C
As of 5:53 AM on Tuesday 21 Oct 2014 (Local Time) from KHLG Reporting Station
Haze Haze  
Wind Chill: 10°   Ceiling: 600
Heat Index: 10°   Visibility: 6mi
Dew Point:   Wind: 6mph
Humidity: 93%   Direction: 230°SW
Pressure: 29.86"   Gusts: NA
Location:  40.28°N, 80.46°W
Report Text: KHLG 210953Z AUTO 23005KT 6SM BR OVC006 10/09 A2986 RMK AO2 SLP115 T01000089
Loading
Personal Weather Stations






























Interactive Weather Map
Tropical Storm Tracking
New forecast layout! Learn more

10-Day Weather Forecast

Advertisements
Track Severe Weather on mobile